Bruno Fernandes

Chefscout - Alverca
20 Nov 2027
Samstag
Verarbeitung

Persönlichkeit

Anpassungsfähigkeit (8) Ehrgeiz (1) Kontroverse (17) Loyalität (10) Druck (9) Professionalität (4) Fairness (12) Temperament (18)

Profil

Trainerstil Demokratisch
Lizenz Nationale A
Entschlossenheit 5
Menschenführung 5
Motivation 10
Disziplin 4
Arbeitszufriedenheit
100%
Ermüdung
0%
Rolle Chefscout
Gehalt 28.6K p/W
Vertrag 14.03.2028

Leistung

Verhalten Gut
Trainingseffektivität
40%
Spielerentwicklung
60%
Verletzungsprävention
30%
Taktische Umsetzung
40%

Letzte Ereignisse

Nahm an einer Scouting-Besprechung teil jetzt
Nahm an einer Scouting-Besprechung teil jetzt
Empfahl ein Transferziel jetzt
Nahm an einer Scouting-Besprechung teil 7T her
Nahm an einer Scouting-Besprechung teil 7T her
Empfahl ein Transferziel 7T her
Nahm an einer Scouting-Besprechung teil 7T her
Nahm an einer Scouting-Besprechung teil 7T her

Aktuell beobachtet

150
Spieler Verein Status Fähigkeit Vertrauen Beobachtet Zuletzt beobachtet Letzte Stimme
Rafael Lobato Rio Ave Aktiv 127 / 124 40% 2 08.11.2027 -
Joel Ezra Enyimba Aktiv 101 / 112 40% 1 08.11.2027 -
Tiago São Paulo Aktiv 101 / 126 40% 1 08.11.2027 -
Kauã Moraes Cruzeiro Aktiv 124 / 133 40% 1 06.11.2027 -
Tiziano Cabrera Central Norte Aktiv 93 / 94 40% 2 05.11.2027 -
Wilfred Correa Caracas Aktiv 88 / 109 40% 1 05.11.2027 -
Nadson Santos Aktiv 105 / 112 40% 1 04.11.2027 -
Diogo Guzmán Montevideo City Torque Aktiv 110 / 127 40% 1 04.11.2027 -
Biel La Equidad Aktiv 118 / 118 40% 1 04.11.2027 -
Nicolas Sport Recife Aktiv 100 / 110 40% 1 03.11.2027 -
Riquelme Felipe São Paulo Aktiv 113 / 121 40% 1 03.11.2027 -
Filipe Gabriel Atletico Goianiense Aktiv 94 / 99 40% 1 01.11.2027 -
David Martínez Toronto FC Aktiv 134 / 110 40% 1 01.11.2027 -
Júlio Fidelis Fluminense Aktiv 98 / 102 40% 1 09.10.2027 -
Abubakar Garba Nasarawa United Aktiv 87 / 103 40% 1 09.10.2027 -
Lucas Duré Montevideo City Torque Aktiv 105 / 99 40% 1 05.10.2027 -
Geovany Quenda Chelsea Aktiv 153 / 151 40% 1 05.10.2027 -
Yago Souza Ceará Aktiv 103 / 104 40% 1 05.10.2027 -
Ruan Pablo Bahia Aktiv 97 / 102 40% 1 06.09.2027 -
Alex Amaefula Kun Khalifat Aktiv 78 / 97 40% 1 06.09.2027 -
Nicolás Azambuja Danubio Verloren 118 / 131 40% 1 23.08.2027 -
Abubakar Garba Nasarawa United Verloren 101 / 98 40% 1 23.08.2027 -
Hassan Beja AFC Leopards Aktiv 75 / 91 40% 1 23.08.2027 -
Getterson Alves Felgueiras Verloren 109 / 94 65% 1 21.06.2027 -
Dries Lukaku Anderlecht Verhandlung 126 / 127 68% 1 01.06.2027 -
Jeon Jin-Woo Sheffield Wednesday Aktiv 127 / 128 40% 3 30.05.2027 -
Helinho Toluca Aktiv 132 / 120 40% 1 30.05.2027 -
Brooke Norton-Cuffy Hull City Aktiv 142 / 127 40% 1 30.05.2027 -
Dale Taylor Blackpool Aktiv 114 / 125 40% 2 29.05.2027 -
Isaiah Jones Luton Town Aktiv 123 / 121 40% 2 27.05.2027 -
Enzo Le Fée Sunderland Aktiv 137 / 147 40% 2 27.05.2027 -
Rodrigo Gomes Wolverhampton Aktiv 143 / 145 40% 5 25.05.2027 -
Max Bird Birmingham Aktiv 138 / 124 40% 1 25.05.2027 -
Rumarn Burrell Queens Park Rangers Aktiv 124 / 129 40% 5 22.05.2027 -
Manu Pozo Torreense Aktiv 114 / 132 40% 5 22.05.2027 -
André Wolverhampton Aktiv 138 / 154 40% 4 22.05.2027 -
Emile Smith Rowe Fulham Aktiv 155 / 153 40% 2 21.05.2027 -
Finn Azaz Southampton Aktiv 129 / 139 40% 3 19.05.2027 -
De Lucca Adana Demirspor Aktiv 118 / 136 40% 1 18.05.2027 -
Gonzalo Fulham Aktiv 139 / 143 40% 2 17.05.2027 -
Jason Knight Bristol City Aktiv 136 / 122 40% 1 17.05.2027 -
Relebohile Mofokeng Orlando Pirates Aktiv 122 / 140 40% 1 15.05.2027 -
Lamine Cissé Peterborough United Aktiv 124 / 132 40% 1 15.05.2027 -
Paddy Lane Reading Aktiv 118 / 98 40% 3 14.05.2027 -
Koki Saito Queens Park Rangers Aktiv 133 / 124 40% 2 14.05.2027 -
Tom Fellows Southampton Aktiv 134 / 143 40% 1 14.05.2027 -
Loum Tchaouna Coventry City Aktiv 134 / 140 40% 5 13.05.2027 -
Tommy Conway Middlesbrough Aktiv 133 / 123 40% 2 11.05.2027 -
Luis Quintero Torreense Aktiv 128 / 122 40% 6 11.05.2027 -
Zeidane Inoussa Swansea City Aktiv 133 / 112 40% 4 10.05.2027 -
Enzo Barrenechea Burnley Aktiv 155 / 154 40% 2 10.05.2027 -
Yanis Begraoui Estoril Praia Aktiv 128 / 148 40% 9 09.05.2027 -
Abraham Marcus Estrela da Amadora Aktiv 131 / 119 40% 3 09.05.2027 -
Florentino Luís Ipswich Town Aktiv 147 / 150 40% 6 06.05.2027 -
Julio Enciso Ipswich Town Aktiv 141 / 136 40% 3 05.05.2027 -
Jalen Blesa Rio Ave Aktiv 118 / 129 40% 6 04.05.2027 -
Ronald Swansea City Aktiv 135 / 116 40% 3 04.05.2027 -
Lorougnon Gohi Académico de Viseu Aktiv 109 / 119 40% 2 02.05.2027 -
Tyler Goodrham Oxford United Aktiv 116 / 129 40% 1 01.05.2027 -
Welington Southampton Aktiv 137 / 135 40% 3 26.04.2027 -
Daniel Kyerewaa Reading Aktiv 107 / 121 40% 2 21.04.2027 -
Brenner Santa Clara Aktiv 111 / 121 40% 3 20.04.2027 -
Ethan Galbraith Swansea City Aktiv 137 / 139 40% 1 20.04.2027 -
Makan Aïko Tondela Aktiv 121 / 126 40% 1 20.04.2027 -
Nuno Moreira Vasco da Gama Aktiv 138 / 130 40% 3 15.04.2027 -
Marcos Antonio Sport Recife Aktiv 137 / 149 40% 1 15.04.2027 -
Henry Mosquera Bragantino Aktiv 131 / 121 40% 2 13.04.2027 -
Danilo Veiga Lecce Aktiv 125 / 115 40% 4 12.04.2027 -
Santi García Gil Vicente Aktiv 137 / 137 40% 1 12.04.2027 -
Juan Bezerra Zamalek Aktiv 106 / 137 40% 1 09.04.2027 -
Vinicinho Bragantino Aktiv 130 / 131 40% 1 08.04.2027 -
Adson Vasco da Gama Aktiv 132 / 122 40% 1 08.04.2027 -
Gabriel Pec Cruzeiro Aktiv 137 / 128 40% 1 06.04.2027 -
Kahiser Lenis Feirense Aktiv 118 / 114 40% 4 04.04.2027 -
Carlos Vicente Udinese Aktiv 143 / 145 40% 2 30.03.2027 -
Tshepang Moremi Orlando Pirates Aktiv 108 / 118 40% 3 29.03.2027 -
Dinis Pinto Moreirense Aktiv 125 / 128 40% 1 29.03.2027 -
Enzo Loiodice KAA Gent Aktiv 136 / 118 40% 1 21.03.2027 -
Chiheb Labidi Nacional Aktiv 117 / 113 40% 1 20.03.2027 -
Diogo Pinto Lusitânia Lourosa Aktiv 108 / 111 40% 1 18.03.2027 -
Daniel Júnior Nacional Aktiv 109 / 115 40% 1 17.03.2027 -
Miguel Baeza Nacional Aktiv 114 / 116 40% 1 15.03.2027 -
Cristian Ferreira Académico de Viseu Aktiv 116 / 105 40% 1 15.03.2027 -
Bryan Limbombe Maritimo Aktiv 107 / 98 40% 2 13.03.2027 -
Christian Krasnodar Aktiv 127 / 146 40% 1 13.03.2027 -
Samuel Bamba Maritimo Aktiv 107 / 119 40% 1 12.03.2027 -
Cian Ashford Cardiff City Aktiv 123 / 129 40% 1 11.03.2027 -
Fernando Ceará Aktiv 121 / 112 40% 1 03.03.2027 -
Matheus Araújo Ceará Aktiv 114 / 119 40% 1 03.03.2027 -
Joe Gelhardt Hull City Aktiv 129 / 134 40% 3 11.01.2027 -
Patrick Berg Borussia Mönchengladbach Verhandlung 141 / 141 62% 1 11.01.2027 -
Aidomo Emakhu Oxford United Aktiv 112 / 119 40% 1 11.01.2027 -
Wandile Duba Maritzburg United Aktiv 115 / 110 40% 1 11.01.2027 -
Armstrong Oko-Flex Levski Aktiv 125 / 136 40% 1 04.01.2027 -
Jovon Makama Norwich City Aktiv 122 / 122 40% 1 04.01.2027 -
Adrian Dragusin CFR Cluj Verhandlung 141 / 142 63% 1 01.01.2027 -
Mao Hosoya Manchester City Verhandlung 134 / 135 67% 1 01.01.2027 -
Rubens Dinamo Moscow Aktiv 127 / 115 40% 1 31.12.2026 -
Kevin Fulham Aktiv 155 / 143 40% 3 30.12.2026 -
João Paulo Crawley Town Aktiv 94 / 99 40% 3 30.12.2026 -
Wallace Yan Flamengo Aktiv 115 / 132 40% 1 30.12.2026 -
Roberto Fernández Braga Aktiv 142 / 147 40% 5 29.12.2026 Beobachten
Diogo Dalot Manchester United Aktiv 148 / 148 40% 1 29.12.2026 -
Yousef Salech Cardiff City Aktiv 127 / 120 40% 3 27.12.2026 -
João Costa Santa Clara Aktiv 109 / 121 40% 3 27.12.2026 -
Marin Benko Zadar Aktiv 131 / 141 40% 5 26.12.2026 -
Max Svensson Penafiel Aktiv 106 / 112 40% 4 20.12.2026 Beobachten
Igor Jesus Nottingham Forest Aktiv 149 / 133 40% 7 19.12.2026 -
Jonas Wind Braga Aktiv 126 / 141 40% 2 19.12.2026 -
Armando Broja Burnley Aktiv 136 / 133 40% 1 18.12.2026 -
Patrick Agyemang Derby County Aktiv 129 / 129 40% 1 18.12.2026 -
George Hirst Stoke City Aktiv 134 / 137 40% 3 11.12.2026 -
Tyrese Campbell Sheffield United Aktiv 132 / 135 40% 1 11.12.2026 -
Jerome Karelse Golden Arrows Aktiv 93 / 113 40% 2 09.12.2026 -
David Miculescu FCSB Aktiv 114 / 106 40% 1 04.12.2026 -
Wilson Isidor Sunderland Aktiv 142 / 134 40% 1 03.12.2026 -
Aune Heggebø West Bromwich Albion Aktiv 120 / 129 40% 2 01.12.2026 -
Zé Leite Moreirense Aktiv 116 / 119 40% 2 01.12.2026 -
André Lacximicant Estoril Praia Aktiv 110 / 103 40% 2 30.11.2026 -
Vinícius Lopes Santa Clara Aktiv 118 / 133 40% 2 30.11.2026 -
Rodrigo Muniz Fulham Aktiv 137 / 141 40% 3 29.11.2026 -
Pau Víctor Estrela da Amadora Aktiv 149 / 124 40% 2 25.11.2026 -
Gabriel Silva Braga Aktiv 133 / 133 40% 2 24.11.2026 -
Martín Tejón Maritimo Aktiv 106 / 122 40% 1 24.11.2026 -
Liam Delap Nottingham Forest Aktiv 150 / 150 40% 2 23.11.2026 -
Ammar Ramadan DAC Dunajska Streda Aktiv 129 / 110 40% 1 17.11.2026 -
Dominik Steczyk Académico de Viseu Aktiv 96 / 101 40% 4 13.11.2026 -
Talles Magno New York City Aktiv 131 / 130 40% 2 13.11.2026 -
Vitinha Genoa Aktiv 137 / 143 40% 2 12.11.2026 -
Richard Koné Queens Park Rangers Aktiv 117 / 129 40% 1 09.11.2026 -
David Da Costa Portland Timbers Aktiv 131 / 135 40% 1 05.11.2026 -
Kaique Kenji Cruzeiro Aktiv 116 / 126 40% 3 03.11.2026 -
Henrique Araújo Casa Pia Aktiv 123 / 133 40% 1 02.11.2026 -
Dávid Strelec Middlesbrough Aktiv 133 / 149 40% 1 01.11.2026 -
Korede Osundina Casa Pia Aktiv 116 / 122 40% 1 30.10.2026 -
Danylo Sikan Anderlecht Aktiv 122 / 138 40% 1 29.10.2026 Mehr Infos nötig
Yuri Alves Bragantino Aktiv 103 / 103 40% 1 27.10.2026 -
Kévin Denkey FC Cincinnati Aktiv 127 / 132 40% 1 24.10.2026 -
Alexis Cuello San Lorenzo Aktiv 131 / 125 40% 3 23.10.2026 -
Rafael Navarro St. Louis CITY SC Aktiv 126 / 132 40% 2 22.10.2026 -
Camilo Durán Bloemfontein Celtic Aktiv 107 / 131 40% 1 21.10.2026 -
Luca Langoni New England Revolution Aktiv 141 / 131 40% 1 21.10.2026 -
Tamble Monteiro Rio Ave Aktiv 118 / 118 40% 3 20.10.2026 -
Pedro Mendes Modena Aktiv 117 / 119 40% 1 19.10.2026 -
Alfonso Trezza Arouca Aktiv 124 / 123 40% 1 12.10.2026 -
Carlos Forbs Club Brugge Aktiv 124 / 132 40% 1 07.10.2026 -
Carlos Álvarez Club America Aktiv 130 / 146 40% 1 07.10.2026 -
Tiziano Dornell Almagro Aktiv 107 / 112 40% 1 24.08.2026 -
Ricardo Alves Chaves Aktiv 99 / 116 65% 1 17.08.2026 Befürworten
Xavier Biscayzacú Sporting CP Aktiv 113 / 127 40% 1 11.08.2026 -